sensor_id;sensor_type;location;lat;lon;timestamp;P1;durP1;ratioP1;P2;durP2;ratioP2
58208;SDS011;44006;52.028;4.696;2023-03-09T00:01:56;41.05;;;22.17;;
58208;SDS011;44006;52.028;4.696;2023-03-09T00:04:23;40.13;;;20.60;;
58208;SDS011;44006;52.028;4.696;2023-03-09T00:06:48;44.28;;;20.95;;
58208;SDS011;44006;52.028;4.696;2023-03-09T00:09:14;37.17;;;19.77;;
58208;SDS011;44006;52.028;4.696;2023-03-09T00:11:41;40.95;;;20.95;;
58208;SDS011;44006;52.028;4.696;2023-03-09T00:14:07;40.05;;;20.20;;
58208;SDS011;44006;52.028;4.696;2023-03-09T00:16:32;35.50;;;19.35;;
58208;SDS011;44006;52.028;4.696;2023-03-09T00:18:58;36.83;;;19.02;;
58208;SDS011;44006;52.028;4.696;2023-03-09T00:21:23;36.35;;;20.08;;
58208;SDS011;44006;52.028;4.696;2023-03-09T00:26:30;38.13;;;19.85;;
58208;SDS011;44006;52.028;4.696;2023-03-09T00:28:55;33.70;;;18.63;;
58208;SDS011;44006;52.028;4.696;2023-03-09T00:31:21;38.03;;;19.05;;
58208;SDS011;44006;52.028;4.696;2023-03-09T00:33:47;37.90;;;20.42;;
58208;SDS011;44006;52.028;4.696;2023-03-09T00:36:13;35.05;;;19.48;;
58208;SDS011;44006;52.028;4.696;2023-03-09T00:38:38;39.63;;;20.27;;
58208;SDS011;44006;52.028;4.696;2023-03-09T00:41:03;35.75;;;19.02;;
58208;SDS011;44006;52.028;4.696;2023-03-09T00:43:29;37.88;;;20.00;;
58208;SDS011;44006;52.028;4.696;2023-03-09T00:45:54;33.00;;;19.08;;
58208;SDS011;44006;52.028;4.696;2023-03-09T00:48:19;37.40;;;19.88;;
58208;SDS011;44006;52.028;4.696;2023-03-09T00:50:45;38.13;;;20.58;;
58208;SDS011;44006;52.028;4.696;2023-03-09T00:53:11;33.70;;;19.95;;
58208;SDS011;44006;52.028;4.696;2023-03-09T00:55:36;38.78;;;19.90;;
58208;SDS011;44006;52.028;4.696;2023-03-09T00:58:01;36.00;;;19.67;;
58208;SDS011;44006;52.028;4.696;2023-03-09T01:00:27;41.65;;;20.90;;
58208;SDS011;44006;52.028;4.696;2023-03-09T01:02:52;43.53;;;20.70;;
58208;SDS011;44006;52.028;4.696;2023-03-09T01:05:19;45.10;;;20.55;;
58208;SDS011;44006;52.028;4.696;2023-03-09T01:07:44;39.92;;;20.83;;
58208;SDS011;44006;52.028;4.696;2023-03-09T01:10:10;40.17;;;21.17;;
58208;SDS011;44006;52.028;4.696;2023-03-09T01:12:36;41.92;;;20.88;;
58208;SDS011;44006;52.028;4.696;2023-03-09T01:15:02;39.70;;;20.90;;
58208;SDS011;44006;52.028;4.696;2023-03-09T01:17:28;36.67;;;19.50;;
58208;SDS011;44006;52.028;4.696;2023-03-09T01:19:53;41.08;;;20.23;;
58208;SDS011;44006;52.028;4.696;2023-03-09T01:22:19;38.85;;;19.40;;
58208;SDS011;44006;52.028;4.696;2023-03-09T01:24:44;35.50;;;19.02;;
58208;SDS011;44006;52.028;4.696;2023-03-09T01:27:09;36.33;;;17.60;;
58208;SDS011;44006;52.028;4.696;2023-03-09T01:29:35;34.10;;;17.10;;
58208;SDS011;44006;52.028;4.696;2023-03-09T01:32:00;34.90;;;18.52;;
58208;SDS011;44006;52.028;4.696;2023-03-09T01:34:27;35.03;;;18.30;;
58208;SDS011;44006;52.028;4.696;2023-03-09T01:36:52;30.42;;;16.08;;
58208;SDS011;44006;52.028;4.696;2023-03-09T01:39:17;28.45;;;15.45;;
58208;SDS011;44006;52.028;4.696;2023-03-09T01:41:43;30.05;;;16.17;;
58208;SDS011;44006;52.028;4.696;2023-03-09T01:44:11;29.55;;;15.98;;
58208;SDS011;44006;52.028;4.696;2023-03-09T01:46:39;31.27;;;14.45;;
58208;SDS011;44006;52.028;4.696;2023-03-09T01:49:15;30.05;;;15.25;;
58208;SDS011;44006;52.028;4.696;2023-03-09T01:54:07;30.75;;;14.65;;
58208;SDS011;44006;52.028;4.696;2023-03-09T01:56:34;28.80;;;14.48;;
58208;SDS011;44006;52.028;4.696;2023-03-09T01:59:00;28.13;;;14.60;;
58208;SDS011;44006;52.028;4.696;2023-03-09T02:01:27;29.48;;;15.10;;
58208;SDS011;44006;52.028;4.696;2023-03-09T02:03:54;31.50;;;15.30;;
58208;SDS011;44006;52.028;4.696;2023-03-09T02:06:21;27.05;;;14.85;;
58208;SDS011;44006;52.028;4.696;2023-03-09T02:08:59;26.23;;;14.35;;
58208;SDS011;44006;52.028;4.696;2023-03-09T02:11:25;28.05;;;14.82;;
58208;SDS011;44006;52.028;4.696;2023-03-09T02:13:51;30.92;;;14.80;;
58208;SDS011;44006;52.028;4.696;2023-03-09T02:16:17;26.88;;;14.50;;
58208;SDS011;44006;52.028;4.696;2023-03-09T02:18:42;25.90;;;14.48;;
58208;SDS011;44006;52.028;4.696;2023-03-09T02:23:51;27.05;;;14.70;;
58208;SDS011;44006;52.028;4.696;2023-03-09T02:26:29;26.48;;;13.95;;
58208;SDS011;44006;52.028;4.696;2023-03-09T02:28:56;24.15;;;14.48;;
58208;SDS011;44006;52.028;4.696;2023-03-09T02:31:23;22.08;;;13.50;;
58208;SDS011;44006;52.028;4.696;2023-03-09T02:33:48;25.45;;;13.50;;
58208;SDS011;44006;52.028;4.696;2023-03-09T02:36:13;26.02;;;14.00;;
58208;SDS011;44006;52.028;4.696;2023-03-09T02:38:39;25.45;;;13.30;;
58208;SDS011;44006;52.028;4.696;2023-03-09T02:41:04;24.50;;;13.90;;
58208;SDS011;44006;52.028;4.696;2023-03-09T02:43:32;27.45;;;13.85;;
58208;SDS011;44006;52.028;4.696;2023-03-09T02:45:58;26.17;;;13.65;;
58208;SDS011;44006;52.028;4.696;2023-03-09T02:48:24;25.23;;;14.15;;
58208;SDS011;44006;52.028;4.696;2023-03-09T02:50:49;24.98;;;13.48;;
58208;SDS011;44006;52.028;4.696;2023-03-09T02:53:14;25.77;;;14.25;;
58208;SDS011;44006;52.028;4.696;2023-03-09T02:55:39;27.30;;;14.75;;
58208;SDS011;44006;52.028;4.696;2023-03-09T02:58:05;26.77;;;14.65;;
58208;SDS011;44006;52.028;4.696;2023-03-09T03:00:30;27.75;;;14.90;;
58208;SDS011;44006;52.028;4.696;2023-03-09T03:02:55;26.30;;;14.48;;
58208;SDS011;44006;52.028;4.696;2023-03-09T03:05:20;29.50;;;15.38;;
58208;SDS011;44006;52.028;4.696;2023-03-09T03:07:46;27.70;;;13.88;;
58208;SDS011;44006;52.028;4.696;2023-03-09T03:10:11;28.70;;;15.57;;
58208;SDS011;44006;52.028;4.696;2023-03-09T03:12:36;32.65;;;16.27;;
58208;SDS011;44006;52.028;4.696;2023-03-09T03:15:02;30.10;;;14.65;;
58208;SDS011;44006;52.028;4.696;2023-03-09T03:17:27;26.75;;;14.93;;
58208;SDS011;44006;52.028;4.696;2023-03-09T03:19:53;30.33;;;15.13;;
58208;SDS011;44006;52.028;4.696;2023-03-09T03:22:18;27.92;;;14.88;;
58208;SDS011;44006;52.028;4.696;2023-03-09T03:24:44;30.90;;;16.02;;
58208;SDS011;44006;52.028;4.696;2023-03-09T03:27:09;28.73;;;14.50;;
58208;SDS011;44006;52.028;4.696;2023-03-09T03:29:34;29.52;;;15.07;;
58208;SDS011;44006;52.028;4.696;2023-03-09T03:31:59;28.35;;;14.50;;
58208;SDS011;44006;52.028;4.696;2023-03-09T03:34:25;30.23;;;16.00;;
58208;SDS011;44006;52.028;4.696;2023-03-09T03:36:51;28.02;;;15.35;;
58208;SDS011;44006;52.028;4.696;2023-03-09T03:39:17;28.17;;;14.45;;
58208;SDS011;44006;52.028;4.696;2023-03-09T03:41:43;28.38;;;15.18;;
58208;SDS011;44006;52.028;4.696;2023-03-09T03:44:09;27.63;;;15.00;;
58208;SDS011;44006;52.028;4.696;2023-03-09T03:46:34;30.33;;;16.00;;
58208;SDS011;44006;52.028;4.696;2023-03-09T03:49:00;31.42;;;16.08;;
58208;SDS011;44006;52.028;4.696;2023-03-09T03:51:26;30.30;;;15.43;;
58208;SDS011;44006;52.028;4.696;2023-03-09T03:53:51;31.05;;;16.15;;
58208;SDS011;44006;52.028;4.696;2023-03-09T03:56:16;30.05;;;15.98;;
58208;SDS011;44006;52.028;4.696;2023-03-09T03:58:42;29.67;;;15.90;;
58208;SDS011;44006;52.028;4.696;2023-03-09T04:01:07;28.73;;;15.00;;
58208;SDS011;44006;52.028;4.696;2023-03-09T04:03:33;33.67;;;15.70;;
58208;SDS011;44006;52.028;4.696;2023-03-09T04:05:58;32.17;;;16.08;;
58208;SDS011;44006;52.028;4.696;2023-03-09T04:08:24;27.25;;;15.10;;
58208;SDS011;44006;52.028;4.696;2023-03-09T04:10:49;28.40;;;14.90;;
58208;SDS011;44006;52.028;4.696;2023-03-09T04:13:15;31.98;;;15.40;;
58208;SDS011;44006;52.028;4.696;2023-03-09T04:15:41;29.30;;;14.65;;
58208;SDS011;44006;52.028;4.696;2023-03-09T04:18:06;29.73;;;15.40;;
58208;SDS011;44006;52.028;4.696;2023-03-09T04:20:31;27.77;;;15.02;;
58208;SDS011;44006;52.028;4.696;2023-03-09T04:22:58;29.25;;;15.80;;
58208;SDS011;44006;52.028;4.696;2023-03-09T04:25:23;27.60;;;14.20;;
58208;SDS011;44006;52.028;4.696;2023-03-09T04:27:48;27.05;;;14.90;;
58208;SDS011;44006;52.028;4.696;2023-03-09T04:30:15;29.10;;;14.80;;
58208;SDS011;44006;52.028;4.696;2023-03-09T04:32:45;29.83;;;14.27;;
58208;SDS011;44006;52.028;4.696;2023-03-09T04:35:11;25.98;;;14.05;;
58208;SDS011;44006;52.028;4.696;2023-03-09T04:37:36;25.95;;;14.68;;
58208;SDS011;44006;52.028;4.696;2023-03-09T04:40:01;25.90;;;13.77;;
58208;SDS011;44006;52.028;4.696;2023-03-09T04:42:28;28.52;;;14.20;;
58208;SDS011;44006;52.028;4.696;2023-03-09T04:44:54;25.25;;;13.30;;
58208;SDS011;44006;52.028;4.696;2023-03-09T04:47:19;27.25;;;14.07;;
58208;SDS011;44006;52.028;4.696;2023-03-09T04:49:45;26.80;;;14.15;;
58208;SDS011;44006;52.028;4.696;2023-03-09T04:52:10;24.20;;;13.40;;
58208;SDS011;44006;52.028;4.696;2023-03-09T04:54:35;27.88;;;13.60;;
58208;SDS011;44006;52.028;4.696;2023-03-09T04:57:01;25.08;;;13.32;;
58208;SDS011;44006;52.028;4.696;2023-03-09T04:59:27;28.30;;;13.95;;
58208;SDS011;44006;52.028;4.696;2023-03-09T05:01:52;31.55;;;14.27;;
58208;SDS011;44006;52.028;4.696;2023-03-09T05:04:17;28.02;;;13.85;;
58208;SDS011;44006;52.028;4.696;2023-03-09T05:06:42;28.73;;;14.50;;
58208;SDS011;44006;52.028;4.696;2023-03-09T05:09:10;31.98;;;14.35;;
58208;SDS011;44006;52.028;4.696;2023-03-09T05:11:35;28.40;;;14.73;;
58208;SDS011;44006;52.028;4.696;2023-03-09T05:14:00;28.90;;;14.60;;
58208;SDS011;44006;52.028;4.696;2023-03-09T05:16:25;33.15;;;15.68;;
58208;SDS011;44006;52.028;4.696;2023-03-09T05:18:51;30.27;;;15.20;;
58208;SDS011;44006;52.028;4.696;2023-03-09T05:21:16;33.35;;;15.93;;
58208;SDS011;44006;52.028;4.696;2023-03-09T05:23:42;34.55;;;17.20;;
58208;SDS011;44006;52.028;4.696;2023-03-09T05:26:07;37.35;;;18.13;;
58208;SDS011;44006;52.028;4.696;2023-03-09T05:28:33;38.75;;;18.02;;
58208;SDS011;44006;52.028;4.696;2023-03-09T05:30:59;38.92;;;18.80;;
58208;SDS011;44006;52.028;4.696;2023-03-09T05:33:24;37.63;;;18.48;;
58208;SDS011;44006;52.028;4.696;2023-03-09T05:35:49;39.78;;;17.80;;
58208;SDS011;44006;52.028;4.696;2023-03-09T05:38:16;38.97;;;19.20;;
58208;SDS011;44006;52.028;4.696;2023-03-09T05:40:41;38.58;;;18.77;;
58208;SDS011;44006;52.028;4.696;2023-03-09T05:43:06;38.55;;;18.92;;
58208;SDS011;44006;52.028;4.696;2023-03-09T05:45:31;36.95;;;18.73;;
58208;SDS011;44006;52.028;4.696;2023-03-09T05:47:57;40.10;;;18.58;;
58208;SDS011;44006;52.028;4.696;2023-03-09T05:50:22;40.80;;;20.23;;
58208;SDS011;44006;52.028;4.696;2023-03-09T05:52:47;39.97;;;19.33;;
58208;SDS011;44006;52.028;4.696;2023-03-09T05:55:12;41.85;;;19.65;;
58208;SDS011;44006;52.028;4.696;2023-03-09T05:57:38;37.63;;;19.50;;
58208;SDS011;44006;52.028;4.696;2023-03-09T06:00:03;36.33;;;19.40;;
58208;SDS011;44006;52.028;4.696;2023-03-09T06:02:29;39.80;;;19.38;;
58208;SDS011;44006;52.028;4.696;2023-03-09T06:04:55;41.28;;;19.98;;
58208;SDS011;44006;52.028;4.696;2023-03-09T06:07:20;37.42;;;18.95;;
58208;SDS011;44006;52.028;4.696;2023-03-09T06:09:45;39.72;;;20.50;;
58208;SDS011;44006;52.028;4.696;2023-03-09T06:12:10;43.47;;;20.33;;
58208;SDS011;44006;52.028;4.696;2023-03-09T06:14:36;40.22;;;20.05;;
58208;SDS011;44006;52.028;4.696;2023-03-09T06:17:01;39.50;;;20.27;;
58208;SDS011;44006;52.028;4.696;2023-03-09T06:19:28;43.78;;;20.27;;
58208;SDS011;44006;52.028;4.696;2023-03-09T06:21:53;42.72;;;21.05;;
58208;SDS011;44006;52.028;4.696;2023-03-09T06:24:18;41.88;;;20.25;;
58208;SDS011;44006;52.028;4.696;2023-03-09T06:26:44;38.47;;;20.67;;
58208;SDS011;44006;52.028;4.696;2023-03-09T06:29:09;40.47;;;20.42;;
58208;SDS011;44006;52.028;4.696;2023-03-09T06:31:34;41.42;;;19.80;;
58208;SDS011;44006;52.028;4.696;2023-03-09T06:33:59;45.15;;;20.98;;
58208;SDS011;44006;52.028;4.696;2023-03-09T06:36:25;40.55;;;19.80;;
58208;SDS011;44006;52.028;4.696;2023-03-09T06:38:50;42.25;;;20.38;;
58208;SDS011;44006;52.028;4.696;2023-03-09T06:41:16;41.17;;;21.15;;
58208;SDS011;44006;52.028;4.696;2023-03-09T06:43:41;42.13;;;19.88;;
58208;SDS011;44006;52.028;4.696;2023-03-09T06:46:08;40.80;;;21.10;;
58208;SDS011;44006;52.028;4.696;2023-03-09T06:48:33;45.92;;;21.98;;
58208;SDS011;44006;52.028;4.696;2023-03-09T06:50:59;42.85;;;21.20;;
58208;SDS011;44006;52.028;4.696;2023-03-09T06:53:25;43.30;;;20.85;;
58208;SDS011;44006;52.028;4.696;2023-03-09T06:55:50;45.35;;;21.25;;
58208;SDS011;44006;52.028;4.696;2023-03-09T06:58:15;44.60;;;21.63;;
58208;SDS011;44006;52.028;4.696;2023-03-09T07:00:42;46.50;;;22.13;;
58208;SDS011;44006;52.028;4.696;2023-03-09T07:03:15;43.83;;;20.15;;
58208;SDS011;44006;52.028;4.696;2023-03-09T07:05:41;44.72;;;21.13;;
58208;SDS011;44006;52.028;4.696;2023-03-09T07:08:07;46.83;;;21.40;;
58208;SDS011;44006;52.028;4.696;2023-03-09T07:10:32;42.03;;;21.55;;
58208;SDS011;44006;52.028;4.696;2023-03-09T07:12:58;41.13;;;20.60;;
58208;SDS011;44006;52.028;4.696;2023-03-09T07:15:23;47.03;;;23.20;;
58208;SDS011;44006;52.028;4.696;2023-03-09T07:17:48;44.97;;;22.05;;
58208;SDS011;44006;52.028;4.696;2023-03-09T07:20:14;48.13;;;22.52;;
58208;SDS011;44006;52.028;4.696;2023-03-09T07:22:39;46.55;;;22.10;;
58208;SDS011;44006;52.028;4.696;2023-03-09T07:25:05;47.25;;;23.60;;
58208;SDS011;44006;52.028;4.696;2023-03-09T07:27:31;48.35;;;22.75;;
58208;SDS011;44006;52.028;4.696;2023-03-09T07:29:56;46.35;;;22.08;;
58208;SDS011;44006;52.028;4.696;2023-03-09T07:32:23;49.92;;;23.67;;
58208;SDS011;44006;52.028;4.696;2023-03-09T07:34:48;47.67;;;23.58;;
58208;SDS011;44006;52.028;4.696;2023-03-09T07:37:13;47.92;;;22.85;;
58208;SDS011;44006;52.028;4.696;2023-03-09T07:39:39;46.72;;;22.60;;
58208;SDS011;44006;52.028;4.696;2023-03-09T07:42:04;45.72;;;21.77;;
58208;SDS011;44006;52.028;4.696;2023-03-09T07:44:30;45.25;;;22.30;;
58208;SDS011;44006;52.028;4.696;2023-03-09T07:46:55;46.28;;;22.45;;
58208;SDS011;44006;52.028;4.696;2023-03-09T07:49:20;45.45;;;22.13;;
58208;SDS011;44006;52.028;4.696;2023-03-09T07:51:45;48.58;;;23.77;;
58208;SDS011;44006;52.028;4.696;2023-03-09T07:54:11;49.78;;;22.95;;
58208;SDS011;44006;52.028;4.696;2023-03-09T07:56:36;47.38;;;23.27;;
58208;SDS011;44006;52.028;4.696;2023-03-09T07:59:02;48.67;;;23.90;;
58208;SDS011;44006;52.028;4.696;2023-03-09T08:01:27;49.45;;;22.45;;
58208;SDS011;44006;52.028;4.696;2023-03-09T08:03:52;47.33;;;22.83;;
58208;SDS011;44006;52.028;4.696;2023-03-09T08:06:18;47.42;;;22.10;;
58208;SDS011;44006;52.028;4.696;2023-03-09T08:08:44;46.92;;;23.35;;
58208;SDS011;44006;52.028;4.696;2023-03-09T08:11:10;45.25;;;22.08;;
58208;SDS011;44006;52.028;4.696;2023-03-09T08:13:35;51.15;;;24.10;;
58208;SDS011;44006;52.028;4.696;2023-03-09T08:16:02;49.05;;;23.23;;
58208;SDS011;44006;52.028;4.696;2023-03-09T08:18:28;51.58;;;24.73;;
58208;SDS011;44006;52.028;4.696;2023-03-09T08:20:54;46.53;;;23.50;;
58208;SDS011;44006;52.028;4.696;2023-03-09T08:23:19;48.67;;;24.35;;
58208;SDS011;44006;52.028;4.696;2023-03-09T08:25:44;49.63;;;23.80;;
58208;SDS011;44006;52.028;4.696;2023-03-09T08:28:16;51.20;;;23.20;;
58208;SDS011;44006;52.028;4.696;2023-03-09T08:30:42;47.50;;;23.00;;
58208;SDS011;44006;52.028;4.696;2023-03-09T08:33:07;49.28;;;24.15;;
58208;SDS011;44006;52.028;4.696;2023-03-09T08:35:33;46.67;;;22.33;;
58208;SDS011;44006;52.028;4.696;2023-03-09T08:37:58;47.80;;;23.30;;
58208;SDS011;44006;52.028;4.696;2023-03-09T08:40:24;49.63;;;23.55;;
58208;SDS011;44006;52.028;4.696;2023-03-09T08:42:50;51.15;;;24.33;;
58208;SDS011;44006;52.028;4.696;2023-03-09T08:45:15;47.08;;;23.02;;
58208;SDS011;44006;52.028;4.696;2023-03-09T08:47:40;49.45;;;24.13;;
58208;SDS011;44006;52.028;4.696;2023-03-09T08:50:06;49.17;;;24.23;;
58208;SDS011;44006;52.028;4.696;2023-03-09T08:52:31;51.58;;;23.88;;
58208;SDS011;44006;52.028;4.696;2023-03-09T08:55:02;48.88;;;23.33;;
58208;SDS011;44006;52.028;4.696;2023-03-09T08:57:29;48.70;;;24.17;;
58208;SDS011;44006;52.028;4.696;2023-03-09T08:59:55;50.67;;;24.10;;
58208;SDS011;44006;52.028;4.696;2023-03-09T09:02:20;43.80;;;22.50;;
58208;SDS011;44006;52.028;4.696;2023-03-09T09:04:46;48.53;;;24.17;;
58208;SDS011;44006;52.028;4.696;2023-03-09T09:07:11;50.58;;;24.23;;
58208;SDS011;44006;52.028;4.696;2023-03-09T09:09:37;52.60;;;25.98;;
58208;SDS011;44006;52.028;4.696;2023-03-09T09:12:03;49.25;;;24.35;;
58208;SDS011;44006;52.028;4.696;2023-03-09T09:14:28;44.40;;;22.38;;
58208;SDS011;44006;52.028;4.696;2023-03-09T09:16:53;47.88;;;23.33;;
58208;SDS011;44006;52.028;4.696;2023-03-09T09:19:19;50.20;;;23.55;;
58208;SDS011;44006;52.028;4.696;2023-03-09T09:21:44;48.60;;;24.33;;
58208;SDS011;44006;52.028;4.696;2023-03-09T09:24:10;49.58;;;24.55;;
58208;SDS011;44006;52.028;4.696;2023-03-09T09:26:36;50.95;;;24.58;;
58208;SDS011;44006;52.028;4.696;2023-03-09T09:29:01;46.47;;;23.58;;
58208;SDS011;44006;52.028;4.696;2023-03-09T09:31:27;50.08;;;24.52;;
58208;SDS011;44006;52.028;4.696;2023-03-09T09:33:53;47.55;;;23.95;;
58208;SDS011;44006;52.028;4.696;2023-03-09T09:36:18;54.20;;;25.52;;
58208;SDS011;44006;52.028;4.696;2023-03-09T09:38:44;47.72;;;22.90;;
58208;SDS011;44006;52.028;4.696;2023-03-09T09:41:23;49.47;;;23.92;;
58208;SDS011;44006;52.028;4.696;2023-03-09T09:43:50;55.05;;;25.85;;
58208;SDS011;44006;52.028;4.696;2023-03-09T09:46:17;52.85;;;24.88;;
58208;SDS011;44006;52.028;4.696;2023-03-09T09:48:45;49.72;;;23.83;;
58208;SDS011;44006;52.028;4.696;2023-03-09T09:51:36;50.63;;;24.70;;
58208;SDS011;44006;52.028;4.696;2023-03-09T09:59:08;51.88;;;23.90;;
58208;SDS011;44006;52.028;4.696;2023-03-09T10:01:45;51.15;;;23.67;;
58208;SDS011;44006;52.028;4.696;2023-03-09T10:04:17;54.05;;;25.35;;
58208;SDS011;44006;52.028;4.696;2023-03-09T10:06:45;48.75;;;24.25;;
58208;SDS011;44006;52.028;4.696;2023-03-09T10:09:21;46.67;;;23.95;;
58208;SDS011;44006;52.028;4.696;2023-03-09T10:11:49;52.67;;;24.92;;
58208;SDS011;44006;52.028;4.696;2023-03-09T10:14:31;53.10;;;24.52;;
58208;SDS011;44006;52.028;4.696;2023-03-09T10:19:41;50.97;;;25.40;;
58208;SDS011;44006;52.028;4.696;2023-03-09T10:22:27;51.15;;;25.20;;
58208;SDS011;44006;52.028;4.696;2023-03-09T10:24:53;51.13;;;25.33;;
58208;SDS011;44006;52.028;4.696;2023-03-09T10:35:02;52.28;;;25.00;;
58208;SDS011;44006;52.028;4.696;2023-03-09T10:37:34;54.25;;;24.98;;
58208;SDS011;44006;52.028;4.696;2023-03-09T10:40:03;50.90;;;24.52;;
58208;SDS011;44006;52.028;4.696;2023-03-09T10:42:32;58.33;;;26.60;;
58208;SDS011;44006;52.028;4.696;2023-03-09T10:45:18;53.10;;;25.45;;
58208;SDS011;44006;52.028;4.696;2023-03-09T10:50:16;55.88;;;25.10;;
58208;SDS011;44006;52.028;4.696;2023-03-09T10:52:41;49.65;;;24.80;;
58208;SDS011;44006;52.028;4.696;2023-03-09T10:57:55;53.10;;;24.85;;
58208;SDS011;44006;52.028;4.696;2023-03-09T11:00:21;53.58;;;25.38;;
58208;SDS011;44006;52.028;4.696;2023-03-09T11:02:53;52.15;;;24.23;;
58208;SDS011;44006;52.028;4.696;2023-03-09T11:05:23;55.65;;;26.27;;
58208;SDS011;44006;52.028;4.696;2023-03-09T11:07:52;56.33;;;26.15;;
58208;SDS011;44006;52.028;4.696;2023-03-09T11:12:51;56.72;;;25.83;;
58208;SDS011;44006;52.028;4.696;2023-03-09T11:17:43;56.47;;;25.02;;
58208;SDS011;44006;52.028;4.696;2023-03-09T11:20:20;52.90;;;25.33;;
58208;SDS011;44006;52.028;4.696;2023-03-09T11:22:49;55.78;;;25.25;;
58208;SDS011;44006;52.028;4.696;2023-03-09T11:28:12;55.53;;;25.77;;
58208;SDS011;44006;52.028;4.696;2023-03-09T11:30:40;57.40;;;26.25;;
58208;SDS011;44006;52.028;4.696;2023-03-09T11:33:08;58.13;;;25.70;;
58208;SDS011;44006;52.028;4.696;2023-03-09T11:35:34;52.95;;;24.27;;
58208;SDS011;44006;52.028;4.696;2023-03-09T11:38:01;63.58;;;26.35;;
58208;SDS011;44006;52.028;4.696;2023-03-09T11:40:29;58.88;;;26.10;;
58208;SDS011;44006;52.028;4.696;2023-03-09T11:43:17;60.15;;;27.45;;
58208;SDS011;44006;52.028;4.696;2023-03-09T11:45:40;62.45;;;26.10;;
58208;SDS011;44006;52.028;4.696;2023-03-09T11:50:36;62.85;;;28.58;;
58208;SDS011;44006;52.028;4.696;2023-03-09T11:53:04;61.53;;;27.15;;
58208;SDS011;44006;52.028;4.696;2023-03-09T11:55:34;62.33;;;27.98;;
58208;SDS011;44006;52.028;4.696;2023-03-09T11:58:01;57.00;;;24.80;;
58208;SDS011;44006;52.028;4.696;2023-03-09T12:00:28;54.63;;;25.50;;
58208;SDS011;44006;52.028;4.696;2023-03-09T12:05:26;60.67;;;27.52;;
58208;SDS011;44006;52.028;4.696;2023-03-09T12:10:34;61.53;;;26.58;;
58208;SDS011;44006;52.028;4.696;2023-03-09T12:15:47;63.30;;;26.88;;
58208;SDS011;44006;52.028;4.696;2023-03-09T12:18:24;61.20;;;26.50;;
58208;SDS011;44006;52.028;4.696;2023-03-09T12:20:53;61.63;;;25.55;;
58208;SDS011;44006;52.028;4.696;2023-03-09T12:26:00;62.10;;;25.73;;
58208;SDS011;44006;52.028;4.696;2023-03-09T12:28:26;58.65;;;25.65;;
58208;SDS011;44006;52.028;4.696;2023-03-09T12:30:53;60.38;;;26.77;;
58208;SDS011;44006;52.028;4.696;2023-03-09T12:36:02;64.50;;;27.80;;
58208;SDS011;44006;52.028;4.696;2023-03-09T12:38:28;64.70;;;26.25;;
58208;SDS011;44006;52.028;4.696;2023-03-09T12:40:53;65.43;;;26.42;;
58208;SDS011;44006;52.028;4.696;2023-03-09T12:45:48;59.38;;;25.88;;
58208;SDS011;44006;52.028;4.696;2023-03-09T12:48:22;61.13;;;27.88;;
58208;SDS011;44006;52.028;4.696;2023-03-09T12:51:13;56.80;;;25.48;;
58208;SDS011;44006;52.028;4.696;2023-03-09T12:53:33;60.00;;;26.35;;
58208;SDS011;44006;52.028;4.696;2023-03-09T12:56:18;63.60;;;25.60;;
58208;SDS011;44006;52.028;4.696;2023-03-09T12:58:44;57.72;;;25.35;;
58208;SDS011;44006;52.028;4.696;2023-03-09T13:03:47;60.95;;;25.63;;
58208;SDS011;44006;52.028;4.696;2023-03-09T13:06:23;57.53;;;25.50;;
58208;SDS011;44006;52.028;4.696;2023-03-09T13:08:54;57.30;;;24.95;;
58208;SDS011;44006;52.028;4.696;2023-03-09T13:13:49;54.45;;;25.48;;
58208;SDS011;44006;52.028;4.696;2023-03-09T13:24:20;58.40;;;24.02;;
58208;SDS011;44006;52.028;4.696;2023-03-09T13:26:58;55.63;;;23.80;;
58208;SDS011;44006;52.028;4.696;2023-03-09T13:29:27;56.72;;;24.80;;
58208;SDS011;44006;52.028;4.696;2023-03-09T13:31:53;53.05;;;23.98;;
58208;SDS011;44006;52.028;4.696;2023-03-09T13:34:20;56.97;;;24.45;;
58208;SDS011;44006;52.028;4.696;2023-03-09T13:36:47;55.15;;;22.92;;
58208;SDS011;44006;52.028;4.696;2023-03-09T13:39:20;56.67;;;25.17;;
58208;SDS011;44006;52.028;4.696;2023-03-09T13:41:46;58.28;;;25.42;;
58208;SDS011;44006;52.028;4.696;2023-03-09T13:44:15;61.30;;;24.85;;
58208;SDS011;44006;52.028;4.696;2023-03-09T13:46:40;58.60;;;24.90;;
58208;SDS011;44006;52.028;4.696;2023-03-09T13:54:22;60.00;;;24.75;;
58208;SDS011;44006;52.028;4.696;2023-03-09T13:57:01;55.97;;;24.15;;
58208;SDS011;44006;52.028;4.696;2023-03-09T14:00:00;55.05;;;24.75;;
58208;SDS011;44006;52.028;4.696;2023-03-09T14:02:18;56.80;;;24.08;;
58208;SDS011;44006;52.028;4.696;2023-03-09T14:05:00;50.67;;;22.25;;
58208;SDS011;44006;52.028;4.696;2023-03-09T14:07:29;52.42;;;23.85;;
58208;SDS011;44006;52.028;4.696;2023-03-09T14:09:57;52.90;;;23.70;;
58208;SDS011;44006;52.028;4.696;2023-03-09T14:12:27;49.20;;;22.80;;
58208;SDS011;44006;52.028;4.696;2023-03-09T14:14:53;51.50;;;24.25;;
58208;SDS011;44006;52.028;4.696;2023-03-09T14:17:19;49.42;;;22.58;;
58208;SDS011;44006;52.028;4.696;2023-03-09T14:19:48;50.15;;;23.08;;
58208;SDS011;44006;52.028;4.696;2023-03-09T14:22:18;49.85;;;21.77;;
58208;SDS011;44006;52.028;4.696;2023-03-09T14:24:43;54.40;;;22.80;;
58208;SDS011;44006;52.028;4.696;2023-03-09T14:27:25;51.83;;;22.52;;
58208;SDS011;44006;52.028;4.696;2023-03-09T14:29:54;51.58;;;22.35;;
58208;SDS011;44006;52.028;4.696;2023-03-09T14:32:21;53.60;;;23.55;;
58208;SDS011;44006;52.028;4.696;2023-03-09T14:34:47;53.95;;;22.38;;
58208;SDS011;44006;52.028;4.696;2023-03-09T14:37:17;48.25;;;21.85;;
58208;SDS011;44006;52.028;4.696;2023-03-09T14:39:43;51.50;;;22.15;;
58208;SDS011;44006;52.028;4.696;2023-03-09T14:45:36;47.95;;;21.35;;
58208;SDS011;44006;52.028;4.696;2023-03-09T14:47:34;49.30;;;20.98;;
58208;SDS011;44006;52.028;4.696;2023-03-09T14:50:00;49.20;;;21.30;;
58208;SDS011;44006;52.028;4.696;2023-03-09T14:52:27;47.15;;;20.63;;
58208;SDS011;44006;52.028;4.696;2023-03-09T14:54:55;55.13;;;22.88;;
58208;SDS011;44006;52.028;4.696;2023-03-09T14:57:22;43.38;;;19.90;;
58208;SDS011;44006;52.028;4.696;2023-03-09T14:59:47;47.03;;;21.60;;
58208;SDS011;44006;52.028;4.696;2023-03-09T15:02:14;52.30;;;22.48;;
58208;SDS011;44006;52.028;4.696;2023-03-09T15:04:41;51.58;;;21.92;;
58208;SDS011;44006;52.028;4.696;2023-03-09T15:07:06;50.13;;;20.83;;
58208;SDS011;44006;52.028;4.696;2023-03-09T15:09:33;45.65;;;21.13;;
58208;SDS011;44006;52.028;4.696;2023-03-09T15:11:59;49.20;;;20.70;;
58208;SDS011;44006;52.028;4.696;2023-03-09T15:16:51;49.80;;;20.40;;
58208;SDS011;44006;52.028;4.696;2023-03-09T15:19:16;49.75;;;21.40;;
58208;SDS011;44006;52.028;4.696;2023-03-09T15:21:42;50.55;;;20.60;;
58208;SDS011;44006;52.028;4.696;2023-03-09T15:24:08;51.13;;;21.13;;
58208;SDS011;44006;52.028;4.696;2023-03-09T15:26:34;46.05;;;20.42;;
58208;SDS011;44006;52.028;4.696;2023-03-09T15:28:59;44.47;;;20.90;;
58208;SDS011;44006;52.028;4.696;2023-03-09T15:31:31;50.17;;;22.90;;
58208;SDS011;44006;52.028;4.696;2023-03-09T15:33:56;45.58;;;20.27;;
58208;SDS011;44006;52.028;4.696;2023-03-09T15:36:22;47.85;;;20.02;;
58208;SDS011;44006;52.028;4.696;2023-03-09T15:38:47;50.33;;;21.40;;